This is the latest recevied weather packets stored in our database for station/object KC4MCQ-10. If no packets are shown the sender has not sent any weather packets the latest 10 day(s).
| Time | Temp. | Humidity | Pressure | Rain* | Wind** | Luminosity | Snow |
|---|---|---|---|---|---|---|---|
| 1787690140 | 27.22° C | 88% | 1016.1 hPa | 27.18 mm | 0 m/s | - | - |
| 1787689540 | 27.22° C | 87% | 1016.2 hPa | 27.18 mm | 0 m/s | - | - |
| 1787688939 | 27.22° C | 88% | 1016.3 hPa | 27.18 mm | 0.45 m/s, 123° | - | - |
| 1787688338 | 27.78° C | 87% | 1016.4 hPa | 27.18 mm | 0.45 m/s, 123° | - | - |
| 1787687730 | 27.22° C | 86% | 1017 hPa | 27.18 mm | 0.89 m/s, 87° | - | - |
| 1787687129 | 27.22° C | 86% | 1017 hPa | 27.18 mm | 0.89 m/s, 87° | - | - |
| 1787686527 | 27.22° C | 86% | 1017 hPa | 27.18 mm | 0.89 m/s, 87° | - | - |
| 1787685926 | 27.22° C | 86% | 1017 hPa | 27.18 mm | 0.89 m/s, 87° | - | - |
| 1787685324 | 27.22° C | 86% | 1017 hPa | 27.18 mm | 0.89 m/s, 87° | - | - |
| 1787684723 | 27.22° C | 86% | 1016.9 hPa | 27.18 mm | 0 m/s | - | - |
| 1787684122 | 27.22° C | 85% | 1016.8 hPa | 27.18 mm | 0 m/s | - | - |
| 1787683514 | 27.22° C | 84% | 1016.9 hPa | 27.18 mm | 0.89 m/s, 127° | - | - |
| 1787682913 | 27.22° C | 85% | 1017.3 hPa | 27.18 mm | 1.34 m/s, 167° | - | - |
| 1787682311 | 27.22° C | 85% | 1017.2 hPa | 27.18 mm | 0.89 m/s, 218° | - | - |
| 1787681711 | 27.22° C | 85% | 1017.2 hPa | 27.18 mm | 0 m/s | - | - |
| 1787681109 | 27.22° C | 85% | 1016.9 hPa | 27.18 mm | 0.45 m/s, 30° | - | - |
| 1787680508 | 27.22° C | 84% | 1017.4 hPa | 27.18 mm | 1.34 m/s, 317° | - | - |
| 1787679907 | 27.78° C | 84% | 1017.3 hPa | 27.18 mm | 0.45 m/s, 86° | - | - |
| 1787679304 | 28.33° C | 82% | 1017.7 hPa | 27.18 mm | 0 m/s | - | - |
| 1787678703 | 28.89° C | 84% | 1017.6 hPa | 27.18 mm | 1.79 m/s, 83° | - | - |
| 1787678102 | 30° C | 81% | 1017.4 hPa | 27.18 mm | 0.45 m/s, 279° | - | - |
| 1787677491 | 30.56° C | 77% | 1017.7 hPa | 27.18 mm | 0.89 m/s, 294° | - | - |
| 1787675687 | 32.22° C | 71% | 1017.5 hPa | 27.18 mm | 0.89 m/s, 273° | - | - |
| 1787675080 | 32.22° C | 72% | 1017.5 hPa | 27.18 mm | 1.34 m/s, 292° | - | - |
| 1787674478 | 31.11° C | 78% | 1017.6 hPa | 27.18 mm | 1.79 m/s, 233° | - | - |
* Rain latest 24 hours (hover to see other rain measurements)
** Current wind speed in m/s (hover to see current wind gust speed)